Glenshire Elementary, Truckee, California Weather observations

Data are for observation ending at time listed.
 Day   Time    Ave.   Ave.  Ave.  Vector   Max.   Stn.    Total    Solar   Ave.   Snow 
  of    of     Air    Rel.  Wind   Wind    Wind   Baro.  Precip.   Rad.    Soil   Depth
Year   Day     Temp.  Hum.  Speed  Dir.    Gust   Pres.                    Temp.       
2015   (PST)    F      %     mph   deg.    mph     mb.     in.     W/m2     F      in. 
---------------------------------------------------------------------------------------  
 108    3:30   27.2    83    0.5    82      2.1   822.8    0.00       0    45.7   999.0
 108    3:40   27.6    83    0.9   255      2.9   822.8    0.00       0    45.7   999.0
 108    3:50   27.6    82    0.4   253      0.4   822.8    0.00       0    45.7   999.0
 108    4:00   26.9    82    0.4   253      0.4   822.8    0.00       0    45.7   999.0
 108    4:10   26.6    82    0.4   253      0.4   822.9    0.00       0    45.7   999.0
 108    4:20   26.3    83    0.9   234      2.1   822.9    0.00       0    45.7   999.0
 108    4:30   26.6    82    0.4   226      2.1   823.0    0.00       0    45.7   999.0
 108    4:40   26.0    83    0.6    89      2.1   822.9    0.00       0    45.7   999.0
 108    4:50   25.5    85    0.4    72      0.4   823.0    0.00       0    45.7   999.0
 108    5:00   25.6    86    0.4    72      0.4   823.0    0.00       0    45.7   999.0
 108    5:10   25.7    86    0.4    72      0.4   823.0    0.00       0    45.7   999.0
 108    5:20   25.6    85    0.4    72      0.4   823.1    0.00       0    45.7   999.0
 108    5:30   25.8    84    0.4    72      0.4   823.1    0.00       0    45.7   999.0
 108    5:40   26.0    84    0.9   219      2.1   823.1    0.00       0    45.7   999.0
 108    5:50   26.0    82    0.4   205      0.4   823.1    0.00       1    45.7   999.0
 108    6:00   26.6    83    0.4   205      0.4   823.1    0.00      72    45.7   999.0
 108    6:10   27.7    80    0.4   205      0.4   823.2    0.00     129    45.7   999.0
 108    6:20   28.5    79    0.5   123      2.1   823.3    0.00     135    45.8   999.0
 108    6:30   29.0    78    1.3    67      2.9   823.3    0.00     187    45.8   999.0
 108    6:40   29.8    77    1.6    64      3.8   823.5    0.00     193    45.8   999.0
 108    6:50   30.3    77    1.4    79      3.8   823.5    0.00     228    45.8   999.0
 108    7:00   31.4    76    2.1    78      3.8   823.5    0.00     258    45.7   999.0
 108    7:10   33.3    73    0.5   114      2.1   823.5    0.00     287    45.7   999.0
 108    7:20   36.4    67    0.4   122      0.4   823.5    0.00     322    45.7   999.0
 108    7:30   37.9    64    0.6   136      2.9   823.5    0.00     352    45.8   999.0
 108    7:40   39.5    60    0.4    73      0.4   823.4    0.00     386    45.8   999.0
 108    7:50   41.6    56    0.8   178      2.9   823.4    0.00     412    45.8   999.0
 108    8:00   42.1    55    0.6    83      2.9   823.3    0.00     451    45.8   999.0
 108    8:10   44.4    51    0.9    90      3.8   823.3    0.00     466    45.7   999.0
 108    8:20   45.0    51    1.7    82      3.8   823.2    0.00     514    45.7   999.0
 108    8:30   46.5    47    1.3    78      3.8   823.1    0.00     515    45.8   999.0
 108    8:40   48.0    44    0.9   281      2.9   823.1    0.00     541    45.7   999.0
 108    8:50   49.7    41    1.4   124      3.8   823.0    0.00     547    45.8   999.0
 108    9:00   51.2    38    1.0   144      3.8   823.0    0.00     587    45.8   999.0
 108    9:10   52.6    35    1.1   130      3.8   822.9    0.00     611    45.8   999.0
 108    9:20   54.2    33    1.5   102      3.8   822.8    0.00     614    45.8   999.0
 108    9:30   55.7    28    1.3   186      4.6   822.8    0.00     670    45.8   999.0
 108    9:40   57.4    28    0.7   289      2.9   822.7    0.00     675    45.7   999.0
 108    9:50   58.3    28    1.1   356      3.8   822.7    0.00     679    45.7   999.0
 108   10:00   58.7    28    2.5    77      5.4   822.6    0.00     726    45.7   999.0
 108   10:10   59.0    26    2.7   220      7.1   822.5    0.00     740    45.7   999.0
 108   10:20   60.9    22    2.3   169      6.3   822.4    0.00     740    45.7   999.0
 108   10:30   61.7    18    2.2   108      8.8   822.3    0.00     740    45.7   999.0
 108   10:40   62.3    19    3.5   116      8.8   822.2    0.00     788    45.7   999.0
 108   10:50   62.2    18    3.0   108      8.0   822.1    0.00     804    45.7   999.0
 108   11:00   63.0    17    3.6   202      8.0   822.0    0.00     804    45.7   999.0
 108   11:10   63.6    15    3.5   216      9.6   821.9    0.00     804    45.7   999.0
 108   11:20   63.8    15    3.4   191      8.8   821.7    0.00     804    45.7   999.0
 108   11:30   63.9    15    4.5   185      9.6   821.6    0.00     817    45.7   999.0
 108   11:40   64.3    14    3.8   229      8.0   821.6    0.00     818    45.7   999.0
 108   11:50   64.8    14    4.0   137      8.8   821.5    0.00     851    45.7   999.0
 108   12:00   65.3    14    2.8    88      7.1   821.4    0.00     851    45.7   999.0
 108   12:10   65.6    14    4.1    98     10.5   821.3    0.00     858    45.7   999.0
 108   12:20   66.6    14    2.2    75      7.1   821.2    0.00     696    45.7   999.0
 108   12:30   65.6    14    3.3    97      8.0   821.1    0.00     911    45.7   999.0
 108   12:40   67.0    14    1.7   159      6.3   821.1    0.00     933    45.7   999.0
 108   12:50   67.8    13    4.2   228     11.3   821.0    0.00     830    45.8   999.0
 108   13:00   66.2    14    2.8   226      8.0   821.0    0.00     714    45.8   999.0
 108   13:10   66.8    13    4.9   239     13.0   821.0    0.00     821    45.8   999.0
 108   13:20   66.7    13    6.8   231     14.7   820.9    0.00     889    45.8   999.0
 108   13:30   65.2    14    3.4   231      9.6   820.9    0.00     225    45.8   999.0
 108   13:40   64.5    14    2.2   218      9.6   820.8    0.00     248    45.8   999.0
 108   13:50   65.2    14    3.8   222      8.8   820.8    0.00     217    45.8   999.0
 108   14:00   64.0    14    3.1   105      8.8   820.7    0.00     193    45.7   999.0
 108   14:10   63.8    14    1.7   230      5.4   820.7    0.00     193    45.7   999.0
 108   14:20   64.3    14    2.2   225      4.6   820.5    0.00     188    45.7   999.0
 108   14:30   64.3    14    2.9   201      7.1   820.5    0.00     229    45.7   999.0
 108   14:40   65.2    14    3.6   198      8.0   820.4    0.00     557    45.7   999.0
 108   14:50   66.4    14    3.3   210      8.0   820.2    0.00     733    45.8   999.0
 108   15:00   67.7    13    3.4   243     10.5   820.2    0.00     647    45.7   999.0
 108   15:10   67.0    14    1.2    27      2.9   820.2    0.00     164    45.8   999.0
 108   15:20   65.7    14    1.5   261      4.6   820.1    0.00     252    45.8   999.0
 108   15:30   65.3    14    1.9   238      5.4   820.1    0.00     175    45.8   999.0
 108   15:40   64.7    14    3.1   216      7.1   820.1    0.00     129    45.7   999.0
 108   15:50   64.7    14    1.3   215      6.3   820.0    0.00     129    45.7   999.0
 108   16:00   64.5    14    2.4   235      6.3   820.0    0.00     129    45.7   999.0
 108   16:10   64.5    14    1.1   234      3.8   820.0    0.00     144    45.7   999.0
 108   16:20   64.1    18    4.1    80     13.0   820.1    0.00     193    45.7   999.0
 108   16:30   62.3    21    4.8    71     12.1   820.1    0.00     193    45.7   999.0
 108   16:40   62.0    21    3.9    78     12.1   820.1    0.00     140    45.7   999.0
 108   16:50   61.7    21    3.3    75      8.8   820.1    0.00     148    45.6   999.0
 108   17:00   61.6    22    2.9    77      6.3   820.1    0.00     132    45.7   999.0
 108   17:10   61.6    22    2.8    84      7.1   820.1    0.00     129    45.7   999.0
 108   17:20   60.7    23    2.8    64      7.1   820.1    0.00      74    45.7   999.0
 108   17:30   60.0    24    1.9    68      4.6   820.1    0.00      64    45.7   999.0
 108   17:40   59.3    25    0.9    67      2.9   820.1    0.00      54    45.7   999.0
 108   17:50   58.7    26    0.4    60      2.1   820.2    0.00      50    45.8   999.0
 108   18:00   58.2    27    0.4     2      0.4   820.2    0.00      39    45.8   999.0
 108   18:10   57.5    27    0.4    89      0.4   820.2    0.00      17    45.8   999.0
 108   18:20   57.1    28    0.4   232      1.2   820.2    0.00       0    45.8   999.0
 108   18:30   56.3    29    0.4   226      0.4   820.2    0.00       0    45.8   999.0
 108   18:40   55.3    30    0.5   227      2.1   820.2    0.00       0    45.8   999.0
 108   18:50   54.3    32    0.4   227      0.4   820.3    0.00       0    45.7   999.0
 108   19:00   53.5    32    0.7   225      2.9   820.4    0.00       0    45.7   999.0
 108   19:10   52.4    34    0.4   132      2.1   820.5    0.00       0    45.8   999.0
 108   19:20   51.3    36    0.4     8      0.4   820.6    0.00       0    45.8   999.0
 108   19:30   50.3    38    0.5   150      2.1   820.7    0.00       0    45.8   999.0
 108   19:40   49.5    39    1.1   268      3.8   820.7    0.00       0    45.8   999.0
 108   19:50   48.9    40    0.4   254      0.4   820.8    0.00       0    45.8   999.0
 108   20:00   47.9    42    0.4   264      2.1   820.8    0.00       0    45.8   999.0
 108   20:10   46.5    44    0.5    78      2.1   820.9    0.00       0    45.8   999.0
 108   20:20   46.4    44    1.1   252      3.8   821.0    0.00       0    45.8   999.0
 108   20:30   46.0    44    1.1   201      3.8   821.0    0.00       0    45.8   999.0
 108   20:40   45.5    45    0.6   193      2.9   821.1    0.00       0    45.8   999.0
 108   20:50   44.3    47    0.7   318      2.9   821.1    0.00       0    45.8   999.0
 108   21:00   43.9    49    0.6   295      2.1   821.1    0.00       0    45.8   999.0
 108   21:10   43.6    50    0.4   291      0.4   821.1    0.00       0    45.8   999.0
 108   21:20   42.8    52    0.4   340      2.1   821.1    0.00       0    45.8   999.0
 108   21:30   42.0    53    0.4   295      0.4   821.1    0.00       0    45.8   999.0
 108   21:40   41.4    56    0.4   295      0.4   821.0    0.00       0    45.8   999.0
 108   21:50   40.9    56    0.4   301      0.4   821.1    0.00       0    45.8   999.0
 108   22:00   40.4    58    0.8     6      2.9   821.2    0.00       0    45.8   999.0
 108   22:10   39.9    60    0.8    58      2.9   821.2    0.00       0    45.8   999.0
 108   22:20   39.4    62    0.4    62      0.4   821.2    0.00       0    45.8   999.0
 108   22:30   39.3    60    0.7     9      2.9   821.2    0.00       0    45.8   999.0
 108   22:40   39.2    59    1.5   269      5.4   821.3    0.00       0    45.8   999.0
 108   22:50   38.6    58    0.5   285      2.1   821.4    0.00       0    45.8   999.0
 108   23:00   37.7    60    0.8    19      2.9   821.3    0.00       0    45.8   999.0
 108   23:10   37.4    62    0.8   353      2.9   821.3    0.00       0    45.8   999.0
 108   23:20   37.1    63    0.9    46      2.9   821.4    0.00       0    45.8   999.0
 108   23:30   36.5    64    1.2    56      3.8   821.4    0.00       0    45.8   999.0
 108   23:40   36.5    66    1.0    47      3.8   821.5    0.00       0    45.8   999.0
 108   23:50   36.2    64    0.4   296      1.2   821.5    0.00       0    45.8   999.0
 109    0:00   35.6    64    0.4   292      1.2   821.6    0.00       0    45.8   999.0
 109    0:10   35.2    65    0.4   294      0.4   821.7    0.00       0    45.8   999.0
 109    0:20   34.9    66    0.4   295      0.4   821.7    0.00       0    45.8   999.0
 109    0:30   34.7    66    0.4   295      0.4   821.7    0.00       0    45.8   999.0
 109    0:40   34.4    66    0.5   295      2.1   821.7    0.00       0    45.8   999.0
 109    0:50   33.9    68    0.4   301      0.4   821.7    0.00       0    45.8   999.0
 109    1:00   33.5    69    0.4    17      0.4   821.7    0.00       0    45.8   999.0
 109    1:10   33.3    70    0.4    17      0.4   821.7    0.00       0    45.8   999.0
 109    1:20   33.5    72    0.5     3      2.9   821.7    0.00       0    45.8   999.0
 109    1:30   33.3    72    0.4   306      0.4   821.7    0.00       0    45.8   999.0
 109    1:40   32.6    72    0.4   319      1.2   821.7    0.00       0    45.8   999.0
 109    1:50   32.3    73    0.4   311      1.2   821.7    0.00       0    45.8   999.0
 109    2:00   32.3    73    0.5   340      2.1   821.6    0.00       0    45.8   999.0
 109    2:10   32.4    72    0.4    39      1.2   821.6    0.00       0    45.8   999.0
 109    2:20   32.0    73    0.4    44      0.4   821.6    0.00       0    45.8   999.0
 109    2:30   31.3    74    0.4    41      0.4   821.7    0.00       0    45.8   999.0
 109    2:40   30.9    76    0.4    41      0.4   821.7    0.00       0    45.8   999.0
 109    2:50   30.9    76    0.4    41      0.4   821.8    0.00       0    45.8   999.0
 109    3:00   30.9    76    0.4    41      0.4   821.8    0.00       0    45.8   999.0
 109    3:10   30.7    76    0.4     1      2.1   821.7    0.00       0    45.8   999.0
 109    3:20   30.4    76    0.4   311      0.4   821.7    0.00       0    45.8   999.0

Return to Glenshire Elementary graphs page.


Western Regional Climate Center,wrcc@dri.edu